sensor_id;sensor_type;location;lat;lon;timestamp;P1;durP1;ratioP1;P2;durP2;ratioP2
75165;SDS011;63747;48.042;10.088;2023-08-08T00:02:38;1.43;;;0.63;;
75165;SDS011;63747;48.042;10.088;2023-08-08T00:05:39;1.48;;;0.80;;
75165;SDS011;63747;48.042;10.088;2023-08-08T00:08:40;1.63;;;0.90;;
75165;SDS011;63747;48.042;10.088;2023-08-08T00:11:41;1.75;;;0.90;;
75165;SDS011;63747;48.042;10.088;2023-08-08T00:14:42;1.57;;;0.90;;
75165;SDS011;63747;48.042;10.088;2023-08-08T00:17:42;1.00;;;0.73;;
75165;SDS011;63747;48.042;10.088;2023-08-08T00:20:43;1.20;;;0.77;;
75165;SDS011;63747;48.042;10.088;2023-08-08T00:23:44;1.00;;;0.70;;
75165;SDS011;63747;48.042;10.088;2023-08-08T00:26:44;1.83;;;0.90;;
75165;SDS011;63747;48.042;10.088;2023-08-08T00:29:45;1.00;;;0.73;;
75165;SDS011;63747;48.042;10.088;2023-08-08T00:32:46;2.40;;;0.90;;
75165;SDS011;63747;48.042;10.088;2023-08-08T00:35:46;1.75;;;0.85;;
75165;SDS011;63747;48.042;10.088;2023-08-08T00:38:47;0.90;;;0.80;;
75165;SDS011;63747;48.042;10.088;2023-08-08T00:44:49;1.43;;;0.90;;
75165;SDS011;63747;48.042;10.088;2023-08-08T00:47:50;0.73;;;0.63;;
75165;SDS011;63747;48.042;10.088;2023-08-08T00:50:52;1.35;;;0.85;;
75165;SDS011;63747;48.042;10.088;2023-08-08T00:53:52;1.15;;;0.68;;
75165;SDS011;63747;48.042;10.088;2023-08-08T00:56:54;1.95;;;0.80;;
75165;SDS011;63747;48.042;10.088;2023-08-08T00:59:55;1.33;;;0.77;;
75165;SDS011;63747;48.042;10.088;2023-08-08T01:02:56;2.80;;;0.93;;
75165;SDS011;63747;48.042;10.088;2023-08-08T01:05:58;1.07;;;0.73;;
75165;SDS011;63747;48.042;10.088;2023-08-08T01:09:48;1.35;;;0.90;;
75165;SDS011;63747;48.042;10.088;2023-08-08T01:12:38;1.08;;;0.60;;
75165;SDS011;63747;48.042;10.088;2023-08-08T01:15:42;3.47;;;1.00;;
75165;SDS011;63747;48.042;10.088;2023-08-08T01:18:44;1.27;;;0.60;;
75165;SDS011;63747;48.042;10.088;2023-08-08T01:21:47;1.17;;;0.85;;
75165;SDS011;63747;48.042;10.088;2023-08-08T01:24:50;1.58;;;0.98;;
75165;SDS011;63747;48.042;10.088;2023-08-08T01:27:53;0.98;;;0.80;;
75165;SDS011;63747;48.042;10.088;2023-08-08T01:30:54;2.08;;;1.02;;
75165;SDS011;63747;48.042;10.088;2023-08-08T01:33:54;0.80;;;0.60;;
75165;SDS011;63747;48.042;10.088;2023-08-08T01:36:56;0.97;;;0.70;;
75165;SDS011;63747;48.042;10.088;2023-08-08T01:40:00;1.48;;;0.80;;
75165;SDS011;63747;48.042;10.088;2023-08-08T01:43:02;1.15;;;0.80;;
75165;SDS011;63747;48.042;10.088;2023-08-08T01:46:04;1.30;;;0.68;;
75165;SDS011;63747;48.042;10.088;2023-08-08T01:49:05;2.15;;;0.77;;
75165;SDS011;63747;48.042;10.088;2023-08-08T01:52:06;2.17;;;1.10;;
75165;SDS011;63747;48.042;10.088;2023-08-08T01:55:07;1.48;;;0.80;;
75165;SDS011;63747;48.042;10.088;2023-08-08T01:58:08;0.98;;;0.75;;
75165;SDS011;63747;48.042;10.088;2023-08-08T02:01:09;3.80;;;0.80;;
75165;SDS011;63747;48.042;10.088;2023-08-08T02:04:09;1.07;;;0.77;;
75165;SDS011;63747;48.042;10.088;2023-08-08T02:07:10;1.83;;;0.97;;
75165;SDS011;63747;48.042;10.088;2023-08-08T02:10:11;1.53;;;0.70;;
75165;SDS011;63747;48.042;10.088;2023-08-08T02:13:12;0.70;;;0.60;;
75165;SDS011;63747;48.042;10.088;2023-08-08T02:16:12;1.20;;;0.87;;
75165;SDS011;63747;48.042;10.088;2023-08-08T02:19:13;2.70;;;0.90;;
75165;SDS011;63747;48.042;10.088;2023-08-08T02:22:14;2.85;;;1.20;;
75165;SDS011;63747;48.042;10.088;2023-08-08T02:25:15;0.70;;;0.57;;
75165;SDS011;63747;48.042;10.088;2023-08-08T02:28:16;2.63;;;1.05;;
75165;SDS011;63747;48.042;10.088;2023-08-08T02:31:16;2.27;;;0.60;;
75165;SDS011;63747;48.042;10.088;2023-08-08T02:34:20;0.80;;;0.70;;
75165;SDS011;63747;48.042;10.088;2023-08-08T02:37:21;1.20;;;0.77;;
75165;SDS011;63747;48.042;10.088;2023-08-08T02:40:22;0.93;;;0.70;;
75165;SDS011;63747;48.042;10.088;2023-08-08T02:46:24;1.30;;;0.60;;
75165;SDS011;63747;48.042;10.088;2023-08-08T02:49:24;1.97;;;1.10;;
75165;SDS011;63747;48.042;10.088;2023-08-08T02:52:25;1.07;;;0.63;;
75165;SDS011;63747;48.042;10.088;2023-08-08T02:55:26;3.00;;;0.70;;
75165;SDS011;63747;48.042;10.088;2023-08-08T02:58:26;1.10;;;0.80;;
75165;SDS011;63747;48.042;10.088;2023-08-08T03:01:27;2.37;;;0.80;;
75165;SDS011;63747;48.042;10.088;2023-08-08T03:04:28;2.03;;;0.73;;
75165;SDS011;63747;48.042;10.088;2023-08-08T03:07:28;2.70;;;0.80;;
75165;SDS011;63747;48.042;10.088;2023-08-08T03:10:29;1.90;;;0.80;;
75165;SDS011;63747;48.042;10.088;2023-08-08T03:13:30;0.90;;;0.60;;
75165;SDS011;63747;48.042;10.088;2023-08-08T03:16:30;1.33;;;0.80;;
75165;SDS011;63747;48.042;10.088;2023-08-08T03:19:31;1.40;;;0.90;;
75165;SDS011;63747;48.042;10.088;2023-08-08T03:22:32;1.37;;;0.90;;
75165;SDS011;63747;48.042;10.088;2023-08-08T03:25:33;1.10;;;0.73;;
75165;SDS011;63747;48.042;10.088;2023-08-08T03:28:34;1.03;;;0.70;;
75165;SDS011;63747;48.042;10.088;2023-08-08T03:31:34;0.70;;;0.50;;
75165;SDS011;63747;48.042;10.088;2023-08-08T03:34:35;3.67;;;1.17;;
75165;SDS011;63747;48.042;10.088;2023-08-08T03:37:36;1.53;;;0.80;;
75165;SDS011;63747;48.042;10.088;2023-08-08T03:40:37;1.83;;;1.10;;
75165;SDS011;63747;48.042;10.088;2023-08-08T03:43:38;1.20;;;0.77;;
75165;SDS011;63747;48.042;10.088;2023-08-08T03:46:39;1.13;;;0.80;;
75165;SDS011;63747;48.042;10.088;2023-08-08T03:49:40;2.73;;;0.90;;
75165;SDS011;63747;48.042;10.088;2023-08-08T03:52:41;1.13;;;0.90;;
75165;SDS011;63747;48.042;10.088;2023-08-08T03:55:41;1.00;;;0.80;;
75165;SDS011;63747;48.042;10.088;2023-08-08T03:58:42;1.70;;;0.70;;
75165;SDS011;63747;48.042;10.088;2023-08-08T04:01:43;1.30;;;0.73;;
75165;SDS011;63747;48.042;10.088;2023-08-08T04:04:44;1.77;;;0.90;;
75165;SDS011;63747;48.042;10.088;2023-08-08T04:07:44;1.17;;;0.50;;
75165;SDS011;63747;48.042;10.088;2023-08-08T04:10:46;1.83;;;0.60;;
75165;SDS011;63747;48.042;10.088;2023-08-08T04:13:47;3.70;;;0.85;;
75165;SDS011;63747;48.042;10.088;2023-08-08T04:16:48;1.02;;;0.80;;
75165;SDS011;63747;48.042;10.088;2023-08-08T04:19:48;0.93;;;0.70;;
75165;SDS011;63747;48.042;10.088;2023-08-08T04:22:49;1.10;;;0.67;;
75165;SDS011;63747;48.042;10.088;2023-08-08T04:25:50;1.33;;;1.00;;
75165;SDS011;63747;48.042;10.088;2023-08-08T04:28:51;1.33;;;0.80;;
75165;SDS011;63747;48.042;10.088;2023-08-08T04:31:52;1.77;;;0.73;;
75165;SDS011;63747;48.042;10.088;2023-08-08T04:34:52;1.70;;;0.90;;
75165;SDS011;63747;48.042;10.088;2023-08-08T04:37:53;1.10;;;0.73;;
75165;SDS011;63747;48.042;10.088;2023-08-08T04:40:54;2.93;;;0.93;;
75165;SDS011;63747;48.042;10.088;2023-08-08T04:43:54;1.50;;;0.97;;
75165;SDS011;63747;48.042;10.088;2023-08-08T04:46:55;1.33;;;1.03;;
75165;SDS011;63747;48.042;10.088;2023-08-08T04:49:56;2.40;;;1.02;;
75165;SDS011;63747;48.042;10.088;2023-08-08T04:52:57;1.37;;;0.90;;
75165;SDS011;63747;48.042;10.088;2023-08-08T04:55:57;2.37;;;1.17;;
75165;SDS011;63747;48.042;10.088;2023-08-08T04:58:58;3.35;;;0.93;;
75165;SDS011;63747;48.042;10.088;2023-08-08T05:01:59;3.13;;;1.10;;
75165;SDS011;63747;48.042;10.088;2023-08-08T05:04:59;3.67;;;1.07;;
75165;SDS011;63747;48.042;10.088;2023-08-08T05:08:00;4.32;;;1.10;;
75165;SDS011;63747;48.042;10.088;2023-08-08T05:11:01;4.47;;;1.30;;
75165;SDS011;63747;48.042;10.088;2023-08-08T05:14:01;3.50;;;1.00;;
75165;SDS011;63747;48.042;10.088;2023-08-08T05:17:02;3.70;;;1.20;;
75165;SDS011;63747;48.042;10.088;2023-08-08T05:20:03;2.38;;;1.08;;
75165;SDS011;63747;48.042;10.088;2023-08-08T05:26:05;5.40;;;1.50;;
75165;SDS011;63747;48.042;10.088;2023-08-08T05:29:06;3.10;;;1.00;;
75165;SDS011;63747;48.042;10.088;2023-08-08T05:32:07;1.63;;;1.10;;
75165;SDS011;63747;48.042;10.088;2023-08-08T05:38:08;2.23;;;1.10;;
75165;SDS011;63747;48.042;10.088;2023-08-08T05:41:09;1.92;;;1.02;;
75165;SDS011;63747;48.042;10.088;2023-08-08T05:44:10;2.63;;;0.80;;
75165;SDS011;63747;48.042;10.088;2023-08-08T05:47:11;4.20;;;0.83;;
75165;SDS011;63747;48.042;10.088;2023-08-08T05:50:11;2.22;;;0.80;;
75165;SDS011;63747;48.042;10.088;2023-08-08T05:53:12;2.10;;;0.70;;
75165;SDS011;63747;48.042;10.088;2023-08-08T05:56:13;2.77;;;0.87;;
75165;SDS011;63747;48.042;10.088;2023-08-08T05:59:14;1.42;;;0.95;;
75165;SDS011;63747;48.042;10.088;2023-08-08T06:02:14;0.80;;;0.70;;
75165;SDS011;63747;48.042;10.088;2023-08-08T06:05:16;1.33;;;0.90;;
75165;SDS011;63747;48.042;10.088;2023-08-08T06:08:17;4.63;;;1.17;;
75165;SDS011;63747;48.042;10.088;2023-08-08T06:11:18;1.15;;;0.90;;
75165;SDS011;63747;48.042;10.088;2023-08-08T06:14:18;3.17;;;1.00;;
75165;SDS011;63747;48.042;10.088;2023-08-08T06:17:19;2.80;;;0.80;;
75165;SDS011;63747;48.042;10.088;2023-08-08T06:20:20;2.35;;;0.90;;
75165;SDS011;63747;48.042;10.088;2023-08-08T06:23:21;0.70;;;0.60;;
75165;SDS011;63747;48.042;10.088;2023-08-08T06:26:22;1.73;;;0.95;;
75165;SDS011;63747;48.042;10.088;2023-08-08T06:29:23;1.15;;;0.80;;
75165;SDS011;63747;48.042;10.088;2023-08-08T06:32:23;3.47;;;0.82;;
75165;SDS011;63747;48.042;10.088;2023-08-08T06:35:24;1.05;;;0.93;;
75165;SDS011;63747;48.042;10.088;2023-08-08T06:38:25;1.90;;;0.88;;
75165;SDS011;63747;48.042;10.088;2023-08-08T06:41:26;0.90;;;0.70;;
75165;SDS011;63747;48.042;10.088;2023-08-08T06:44:26;2.03;;;0.80;;
75165;SDS011;63747;48.042;10.088;2023-08-08T06:47:27;2.08;;;0.80;;
75165;SDS011;63747;48.042;10.088;2023-08-08T06:50:28;2.08;;;0.88;;
75165;SDS011;63747;48.042;10.088;2023-08-08T06:53:28;1.50;;;0.88;;
75165;SDS011;63747;48.042;10.088;2023-08-08T06:56:29;1.52;;;0.88;;
75165;SDS011;63747;48.042;10.088;2023-08-08T06:59:30;1.15;;;0.90;;
75165;SDS011;63747;48.042;10.088;2023-08-08T07:02:30;1.15;;;0.70;;
75165;SDS011;63747;48.042;10.088;2023-08-08T07:05:32;1.15;;;0.80;;
75165;SDS011;63747;48.042;10.088;2023-08-08T07:08:32;1.50;;;0.90;;
75165;SDS011;63747;48.042;10.088;2023-08-08T07:11:33;1.95;;;0.70;;
75165;SDS011;63747;48.042;10.088;2023-08-08T07:14:34;1.13;;;0.70;;
75165;SDS011;63747;48.042;10.088;2023-08-08T07:17:34;1.60;;;1.02;;
75165;SDS011;63747;48.042;10.088;2023-08-08T07:20:35;0.85;;;0.65;;
75165;SDS011;63747;48.042;10.088;2023-08-08T07:23:36;0.75;;;0.60;;
75165;SDS011;63747;48.042;10.088;2023-08-08T07:26:36;1.48;;;0.80;;
75165;SDS011;63747;48.042;10.088;2023-08-08T07:29:37;1.83;;;1.00;;
75165;SDS011;63747;48.042;10.088;2023-08-08T07:32:38;0.98;;;0.88;;
75165;SDS011;63747;48.042;10.088;2023-08-08T07:35:38;1.27;;;0.68;;
75165;SDS011;63747;48.042;10.088;2023-08-08T07:38:39;1.17;;;0.88;;
75165;SDS011;63747;48.042;10.088;2023-08-08T07:41:40;2.25;;;1.02;;
75165;SDS011;63747;48.042;10.088;2023-08-08T07:44:41;1.30;;;0.70;;
75165;SDS011;63747;48.042;10.088;2023-08-08T07:47:41;1.20;;;0.82;;
75165;SDS011;63747;48.042;10.088;2023-08-08T07:50:42;0.82;;;0.60;;
75165;SDS011;63747;48.042;10.088;2023-08-08T07:53:43;1.95;;;0.95;;
75165;SDS011;63747;48.042;10.088;2023-08-08T07:56:43;1.95;;;0.90;;
75165;SDS011;63747;48.042;10.088;2023-08-08T07:59:44;2.13;;;0.85;;
75165;SDS011;63747;48.042;10.088;2023-08-08T08:02:45;2.60;;;0.90;;
75165;SDS011;63747;48.042;10.088;2023-08-08T08:08:46;3.20;;;0.80;;
75165;SDS011;63747;48.042;10.088;2023-08-08T08:14:47;1.83;;;1.00;;
75165;SDS011;63747;48.042;10.088;2023-08-08T08:17:48;1.98;;;0.85;;
75165;SDS011;63747;48.042;10.088;2023-08-08T08:23:49;2.27;;;0.90;;
75165;SDS011;63747;48.042;10.088;2023-08-08T08:26:51;0.98;;;0.70;;
75165;SDS011;63747;48.042;10.088;2023-08-08T08:32:52;1.37;;;0.90;;
75165;SDS011;63747;48.042;10.088;2023-08-08T08:38:54;1.92;;;0.90;;
75165;SDS011;63747;48.042;10.088;2023-08-08T08:45:02;2.38;;;1.08;;
75165;SDS011;63747;48.042;10.088;2023-08-08T08:48:04;1.67;;;1.00;;
75165;SDS011;63747;48.042;10.088;2023-08-08T08:51:10;2.58;;;1.30;;
75165;SDS011;63747;48.042;10.088;2023-08-08T08:57:12;2.85;;;1.10;;
75165;SDS011;63747;48.042;10.088;2023-08-08T09:03:14;1.00;;;0.73;;
75165;SDS011;63747;48.042;10.088;2023-08-08T09:06:16;4.10;;;0.90;;
75165;SDS011;63747;48.042;10.088;2023-08-08T09:09:19;2.15;;;0.95;;
75165;SDS011;63747;48.042;10.088;2023-08-08T09:12:21;1.88;;;1.00;;
75165;SDS011;63747;48.042;10.088;2023-08-08T09:15:23;1.65;;;0.90;;
75165;SDS011;63747;48.042;10.088;2023-08-08T09:18:24;1.10;;;0.80;;
75165;SDS011;63747;48.042;10.088;2023-08-08T09:21:25;1.05;;;0.80;;
75165;SDS011;63747;48.042;10.088;2023-08-08T09:24:25;2.58;;;0.90;;
75165;SDS011;63747;48.042;10.088;2023-08-08T09:27:28;2.05;;;0.70;;
75165;SDS011;63747;48.042;10.088;2023-08-08T09:30:29;1.95;;;0.80;;
75165;SDS011;63747;48.042;10.088;2023-08-08T09:33:30;1.75;;;0.88;;
75165;SDS011;63747;48.042;10.088;2023-08-08T09:36:31;1.48;;;0.90;;
75165;SDS011;63747;48.042;10.088;2023-08-08T09:39:33;1.33;;;0.90;;
75165;SDS011;63747;48.042;10.088;2023-08-08T09:42:34;3.15;;;0.98;;
75165;SDS011;63747;48.042;10.088;2023-08-08T09:45:36;2.53;;;0.80;;
75165;SDS011;63747;48.042;10.088;2023-08-08T09:48:41;2.08;;;0.95;;
75165;SDS011;63747;48.042;10.088;2023-08-08T09:51:43;1.45;;;0.80;;
75165;SDS011;63747;48.042;10.088;2023-08-08T09:54:44;1.67;;;0.82;;
75165;SDS011;63747;48.042;10.088;2023-08-08T09:57:46;1.67;;;0.80;;
75165;SDS011;63747;48.042;10.088;2023-08-08T10:00:50;2.25;;;0.82;;
75165;SDS011;63747;48.042;10.088;2023-08-08T10:03:51;1.55;;;0.75;;
75165;SDS011;63747;48.042;10.088;2023-08-08T10:06:52;1.95;;;0.80;;
75165;SDS011;63747;48.042;10.088;2023-08-08T10:09:53;1.58;;;0.90;;
75165;SDS011;63747;48.042;10.088;2023-08-08T10:12:54;2.67;;;0.98;;
75165;SDS011;63747;48.042;10.088;2023-08-08T10:15:55;2.13;;;0.90;;
75165;SDS011;63747;48.042;10.088;2023-08-08T10:18:57;1.23;;;0.80;;
75165;SDS011;63747;48.042;10.088;2023-08-08T10:22:02;1.55;;;0.90;;
75165;SDS011;63747;48.042;10.088;2023-08-08T10:25:05;1.73;;;1.10;;
75165;SDS011;63747;48.042;10.088;2023-08-08T10:28:08;1.17;;;0.90;;
75165;SDS011;63747;48.042;10.088;2023-08-08T10:31:15;1.88;;;0.77;;
75165;SDS011;63747;48.042;10.088;2023-08-08T10:34:20;2.15;;;0.80;;
75165;SDS011;63747;48.042;10.088;2023-08-08T10:37:24;1.38;;;0.70;;
75165;SDS011;63747;48.042;10.088;2023-08-08T10:40:31;1.20;;;0.75;;
75165;SDS011;63747;48.042;10.088;2023-08-08T10:43:33;1.35;;;0.80;;
75165;SDS011;63747;48.042;10.088;2023-08-08T10:46:33;1.92;;;0.90;;
75165;SDS011;63747;48.042;10.088;2023-08-08T10:49:35;1.13;;;0.80;;
75165;SDS011;63747;48.042;10.088;2023-08-08T10:52:52;1.42;;;0.85;;
75165;SDS011;63747;48.042;10.088;2023-08-08T10:56:02;0.85;;;0.68;;
75165;SDS011;63747;48.042;10.088;2023-08-08T10:59:13;1.67;;;0.90;;
75165;SDS011;63747;48.042;10.088;2023-08-08T11:02:16;1.33;;;0.80;;
75165;SDS011;63747;48.042;10.088;2023-08-08T11:05:19;1.20;;;0.82;;
75165;SDS011;63747;48.042;10.088;2023-08-08T11:08:21;2.58;;;0.90;;
75165;SDS011;63747;48.042;10.088;2023-08-08T11:11:23;0.98;;;0.80;;
75165;SDS011;63747;48.042;10.088;2023-08-08T11:14:23;2.20;;;0.77;;
75165;SDS011;63747;48.042;10.088;2023-08-08T11:17:24;1.23;;;0.80;;
75165;SDS011;63747;48.042;10.088;2023-08-08T11:20:28;1.58;;;0.93;;
75165;SDS011;63747;48.042;10.088;2023-08-08T11:23:32;1.08;;;0.90;;
75165;SDS011;63747;48.042;10.088;2023-08-08T11:26:38;1.05;;;0.85;;
75165;SDS011;63747;48.042;10.088;2023-08-08T11:29:40;1.85;;;0.80;;
75165;SDS011;63747;48.042;10.088;2023-08-08T11:32:41;1.48;;;0.90;;
75165;SDS011;63747;48.042;10.088;2023-08-08T11:35:45;3.13;;;0.82;;
75165;SDS011;63747;48.042;10.088;2023-08-08T11:38:46;1.38;;;0.90;;
75165;SDS011;63747;48.042;10.088;2023-08-08T11:41:49;2.83;;;0.90;;
75165;SDS011;63747;48.042;10.088;2023-08-08T11:44:50;2.53;;;0.85;;
75165;SDS011;63747;48.042;10.088;2023-08-08T11:47:54;1.33;;;0.88;;
75165;SDS011;63747;48.042;10.088;2023-08-08T11:50:56;1.35;;;0.90;;
75165;SDS011;63747;48.042;10.088;2023-08-08T11:53:57;2.38;;;1.00;;
75165;SDS011;63747;48.042;10.088;2023-08-08T11:57:00;0.90;;;0.65;;
75165;SDS011;63747;48.042;10.088;2023-08-08T12:00:03;1.35;;;0.60;;
75165;SDS011;63747;48.042;10.088;2023-08-08T12:03:07;1.23;;;0.90;;
75165;SDS011;63747;48.042;10.088;2023-08-08T12:06:15;1.52;;;0.90;;
75165;SDS011;63747;48.042;10.088;2023-08-08T12:09:16;2.17;;;1.13;;
75165;SDS011;63747;48.042;10.088;2023-08-08T12:12:19;1.60;;;0.88;;
75165;SDS011;63747;48.042;10.088;2023-08-08T12:15:20;1.27;;;1.00;;
75165;SDS011;63747;48.042;10.088;2023-08-08T12:18:20;1.38;;;0.80;;
75165;SDS011;63747;48.042;10.088;2023-08-08T12:21:22;1.23;;;0.73;;
75165;SDS011;63747;48.042;10.088;2023-08-08T12:24:23;1.25;;;0.85;;
75165;SDS011;63747;48.042;10.088;2023-08-08T12:27:23;1.38;;;0.77;;
75165;SDS011;63747;48.042;10.088;2023-08-08T12:30:24;1.42;;;0.80;;
75165;SDS011;63747;48.042;10.088;2023-08-08T12:33:25;1.35;;;0.80;;
75165;SDS011;63747;48.042;10.088;2023-08-08T12:36:26;2.00;;;1.02;;
75165;SDS011;63747;48.042;10.088;2023-08-08T12:39:26;1.00;;;0.80;;
75165;SDS011;63747;48.042;10.088;2023-08-08T12:42:27;2.17;;;1.00;;
75165;SDS011;63747;48.042;10.088;2023-08-08T12:45:28;1.02;;;0.85;;
75165;SDS011;63747;48.042;10.088;2023-08-08T12:48:28;2.38;;;0.80;;
75165;SDS011;63747;48.042;10.088;2023-08-08T12:51:29;1.85;;;1.00;;
75165;SDS011;63747;48.042;10.088;2023-08-08T12:54:30;1.10;;;0.80;;
75165;SDS011;63747;48.042;10.088;2023-08-08T12:57:30;2.65;;;0.70;;
75165;SDS011;63747;48.042;10.088;2023-08-08T13:00:32;0.70;;;0.70;;
75165;SDS011;63747;48.042;10.088;2023-08-08T13:03:32;1.35;;;1.05;;
75165;SDS011;63747;48.042;10.088;2023-08-08T13:06:34;4.93;;;1.00;;
75165;SDS011;63747;48.042;10.088;2023-08-08T13:09:34;2.15;;;1.00;;
75165;SDS011;63747;48.042;10.088;2023-08-08T13:12:35;1.42;;;0.90;;
75165;SDS011;63747;48.042;10.088;2023-08-08T13:15:36;1.83;;;0.98;;
75165;SDS011;63747;48.042;10.088;2023-08-08T13:18:37;1.80;;;1.00;;
75165;SDS011;63747;48.042;10.088;2023-08-08T13:21:37;2.33;;;0.90;;
75165;SDS011;63747;48.042;10.088;2023-08-08T13:24:39;0.85;;;0.80;;
75165;SDS011;63747;48.042;10.088;2023-08-08T13:27:39;1.85;;;0.90;;
75165;SDS011;63747;48.042;10.088;2023-08-08T13:30:42;2.35;;;0.90;;
75165;SDS011;63747;48.042;10.088;2023-08-08T13:33:43;1.42;;;0.88;;
75165;SDS011;63747;48.042;10.088;2023-08-08T13:36:43;1.15;;;0.85;;
75165;SDS011;63747;48.042;10.088;2023-08-08T13:39:44;2.67;;;1.02;;
75165;SDS011;63747;48.042;10.088;2023-08-08T13:42:45;1.23;;;1.00;;
75165;SDS011;63747;48.042;10.088;2023-08-08T13:45:47;3.78;;;0.93;;
75165;SDS011;63747;48.042;10.088;2023-08-08T13:48:48;1.45;;;0.95;;
75165;SDS011;63747;48.042;10.088;2023-08-08T13:51:49;1.13;;;0.90;;
75165;SDS011;63747;48.042;10.088;2023-08-08T13:54:50;0.85;;;0.82;;
75165;SDS011;63747;48.042;10.088;2023-08-08T13:57:51;1.58;;;0.90;;
75165;SDS011;63747;48.042;10.088;2023-08-08T14:00:52;1.27;;;0.98;;
75165;SDS011;63747;48.042;10.088;2023-08-08T14:03:52;2.88;;;1.05;;
75165;SDS011;63747;48.042;10.088;2023-08-08T14:06:53;1.27;;;0.93;;
75165;SDS011;63747;48.042;10.088;2023-08-08T14:09:54;2.20;;;1.05;;
75165;SDS011;63747;48.042;10.088;2023-08-08T14:12:54;1.80;;;1.10;;
75165;SDS011;63747;48.042;10.088;2023-08-08T14:15:55;1.40;;;1.00;;
75165;SDS011;63747;48.042;10.088;2023-08-08T14:18:56;2.70;;;1.13;;
75165;SDS011;63747;48.042;10.088;2023-08-08T14:21:56;2.05;;;1.15;;
75165;SDS011;63747;48.042;10.088;2023-08-08T14:24:57;1.20;;;0.95;;
75165;SDS011;63747;48.042;10.088;2023-08-08T14:27:58;1.33;;;1.10;;
75165;SDS011;63747;48.042;10.088;2023-08-08T14:30:59;1.67;;;0.90;;
75165;SDS011;63747;48.042;10.088;2023-08-08T14:34:02;1.25;;;0.80;;
75165;SDS011;63747;48.042;10.088;2023-08-08T14:37:03;2.83;;;1.00;;
75165;SDS011;63747;48.042;10.088;2023-08-08T14:40:04;1.30;;;0.95;;
75165;SDS011;63747;48.042;10.088;2023-08-08T14:43:05;1.05;;;0.90;;
75165;SDS011;63747;48.042;10.088;2023-08-08T14:46:10;1.92;;;1.10;;
75165;SDS011;63747;48.042;10.088;2023-08-08T14:49:10;2.08;;;1.00;;
75165;SDS011;63747;48.042;10.088;2023-08-08T14:52:11;1.88;;;1.10;;
75165;SDS011;63747;48.042;10.088;2023-08-08T14:55:13;1.92;;;1.05;;
75165;SDS011;63747;48.042;10.088;2023-08-08T14:58:14;1.58;;;0.93;;
75165;SDS011;63747;48.042;10.088;2023-08-08T15:01:15;1.83;;;1.00;;
75165;SDS011;63747;48.042;10.088;2023-08-08T15:04:16;2.40;;;1.10;;
75165;SDS011;63747;48.042;10.088;2023-08-08T15:07:16;1.83;;;1.10;;
75165;SDS011;63747;48.042;10.088;2023-08-08T15:10:17;3.22;;;1.05;;
75165;SDS011;63747;48.042;10.088;2023-08-08T15:13:18;1.40;;;1.00;;
75165;SDS011;63747;48.042;10.088;2023-08-08T15:16:18;2.45;;;0.93;;
75165;SDS011;63747;48.042;10.088;2023-08-08T15:19:19;3.20;;;1.30;;
75165;SDS011;63747;48.042;10.088;2023-08-08T15:22:20;1.52;;;1.00;;
75165;SDS011;63747;48.042;10.088;2023-08-08T15:25:21;1.08;;;0.80;;
75165;SDS011;63747;48.042;10.088;2023-08-08T15:28:21;2.30;;;1.15;;
75165;SDS011;63747;48.042;10.088;2023-08-08T15:31:23;2.33;;;1.20;;
75165;SDS011;63747;48.042;10.088;2023-08-08T15:34:24;2.13;;;1.00;;
75165;SDS011;63747;48.042;10.088;2023-08-08T15:37:24;2.63;;;1.20;;
75165;SDS011;63747;48.042;10.088;2023-08-08T15:40:25;2.15;;;1.20;;
75165;SDS011;63747;48.042;10.088;2023-08-08T15:43:26;1.55;;;1.25;;
75165;SDS011;63747;48.042;10.088;2023-08-08T15:46:27;1.92;;;1.13;;
75165;SDS011;63747;48.042;10.088;2023-08-08T15:49:28;2.47;;;1.15;;
75165;SDS011;63747;48.042;10.088;2023-08-08T15:52:28;1.52;;;1.05;;
75165;SDS011;63747;48.042;10.088;2023-08-08T15:55:29;1.23;;;0.90;;
75165;SDS011;63747;48.042;10.088;2023-08-08T15:58:30;2.03;;;1.10;;
75165;SDS011;63747;48.042;10.088;2023-08-08T16:01:31;1.92;;;0.90;;
75165;SDS011;63747;48.042;10.088;2023-08-08T16:04:31;2.50;;;1.00;;
75165;SDS011;63747;48.042;10.088;2023-08-08T16:07:32;1.42;;;1.00;;
75165;SDS011;63747;48.042;10.088;2023-08-08T16:10:33;2.78;;;1.17;;
75165;SDS011;63747;48.042;10.088;2023-08-08T16:13:33;1.95;;;1.05;;
75165;SDS011;63747;48.042;10.088;2023-08-08T16:16:34;1.60;;;0.90;;
75165;SDS011;63747;48.042;10.088;2023-08-08T16:19:36;1.13;;;0.80;;
75165;SDS011;63747;48.042;10.088;2023-08-08T16:22:36;2.85;;;1.13;;
75165;SDS011;63747;48.042;10.088;2023-08-08T16:25:37;2.40;;;1.20;;
75165;SDS011;63747;48.042;10.088;2023-08-08T16:28:38;1.98;;;1.10;;
75165;SDS011;63747;48.042;10.088;2023-08-08T16:31:38;1.35;;;0.90;;
75165;SDS011;63747;48.042;10.088;2023-08-08T16:34:39;4.20;;;1.20;;
75165;SDS011;63747;48.042;10.088;2023-08-08T16:37:40;2.22;;;1.00;;
75165;SDS011;63747;48.042;10.088;2023-08-08T16:40:41;2.08;;;1.20;;
75165;SDS011;63747;48.042;10.088;2023-08-08T16:43:42;2.10;;;1.20;;
75165;SDS011;63747;48.042;10.088;2023-08-08T16:46:42;2.97;;;1.00;;
75165;SDS011;63747;48.042;10.088;2023-08-08T16:49:43;1.73;;;1.17;;
75165;SDS011;63747;48.042;10.088;2023-08-08T16:52:45;1.98;;;1.10;;
75165;SDS011;63747;48.042;10.088;2023-08-08T16:55:46;5.25;;;1.27;;
75165;SDS011;63747;48.042;10.088;2023-08-08T16:58:46;1.95;;;1.02;;
75165;SDS011;63747;48.042;10.088;2023-08-08T17:01:48;2.75;;;1.10;;
75165;SDS011;63747;48.042;10.088;2023-08-08T17:04:49;2.33;;;1.10;;
75165;SDS011;63747;48.042;10.088;2023-08-08T17:07:51;1.73;;;1.20;;
75165;SDS011;63747;48.042;10.088;2023-08-08T17:10:52;2.30;;;1.05;;
75165;SDS011;63747;48.042;10.088;2023-08-08T17:13:54;1.60;;;1.10;;
75165;SDS011;63747;48.042;10.088;2023-08-08T17:16:55;1.85;;;1.00;;
75165;SDS011;63747;48.042;10.088;2023-08-08T17:19:55;2.28;;;1.05;;
75165;SDS011;63747;48.042;10.088;2023-08-08T17:22:56;3.45;;;1.45;;
75165;SDS011;63747;48.042;10.088;2023-08-08T17:25:57;2.83;;;1.35;;
75165;SDS011;63747;48.042;10.088;2023-08-08T17:28:58;2.17;;;1.50;;
75165;SDS011;63747;48.042;10.088;2023-08-08T17:31:59;2.00;;;1.80;;
75165;SDS011;63747;48.042;10.088;2023-08-08T17:34:59;2.22;;;1.20;;
75165;SDS011;63747;48.042;10.088;2023-08-08T17:38:01;3.53;;;1.40;;
75165;SDS011;63747;48.042;10.088;2023-08-08T17:41:02;2.33;;;1.27;;
75165;SDS011;63747;48.042;10.088;2023-08-08T17:44:03;2.22;;;1.63;;
75165;SDS011;63747;48.042;10.088;2023-08-08T17:47:04;3.03;;;1.70;;
75165;SDS011;63747;48.042;10.088;2023-08-08T17:50:05;3.25;;;2.03;;
75165;SDS011;63747;48.042;10.088;2023-08-08T17:53:06;3.08;;;2.15;;
75165;SDS011;63747;48.042;10.088;2023-08-08T17:56:07;2.72;;;1.70;;
75165;SDS011;63747;48.042;10.088;2023-08-08T17:59:08;2.42;;;1.67;;
75165;SDS011;63747;48.042;10.088;2023-08-08T18:02:08;3.97;;;2.53;;
75165;SDS011;63747;48.042;10.088;2023-08-08T18:05:10;3.13;;;2.17;;
75165;SDS011;63747;48.042;10.088;2023-08-08T18:08:13;2.60;;;1.50;;
75165;SDS011;63747;48.042;10.088;2023-08-08T18:11:15;2.28;;;1.75;;
75165;SDS011;63747;48.042;10.088;2023-08-08T18:14:16;2.10;;;1.42;;
75165;SDS011;63747;48.042;10.088;2023-08-08T18:17:17;2.78;;;1.20;;
75165;SDS011;63747;48.042;10.088;2023-08-08T18:20:18;2.50;;;1.10;;
75165;SDS011;63747;48.042;10.088;2023-08-08T18:23:19;1.30;;;0.85;;
75165;SDS011;63747;48.042;10.088;2023-08-08T18:26:21;2.00;;;1.40;;
75165;SDS011;63747;48.042;10.088;2023-08-08T18:29:23;1.73;;;1.20;;
75165;SDS011;63747;48.042;10.088;2023-08-08T18:32:24;2.00;;;1.48;;